sensor_id;sensor_type;location;lat;lon;timestamp;temperature;humidity
21207;DHT22;10761;48.532;8.026;2023-05-29T00:00:07;14.80;1.00
21207;DHT22;10761;48.532;8.026;2023-05-29T00:02:34;14.70;1.00
21207;DHT22;10761;48.532;8.026;2023-05-29T00:05:00;14.60;99.90
21207;DHT22;10761;48.532;8.026;2023-05-29T00:07:29;14.50;1.00
21207;DHT22;10761;48.532;8.026;2023-05-29T00:09:55;14.30;99.90
21207;DHT22;10761;48.532;8.026;2023-05-29T00:12:20;14.30;99.90
21207;DHT22;10761;48.532;8.026;2023-05-29T00:14:48;14.10;1.00
21207;DHT22;10761;48.532;8.026;2023-05-29T00:17:13;14.10;1.00
21207;DHT22;10761;48.532;8.026;2023-05-29T00:19:43;14.00;1.00
21207;DHT22;10761;48.532;8.026;2023-05-29T00:22:08;13.90;1.00
21207;DHT22;10761;48.532;8.026;2023-05-29T00:24:34;13.90;1.00
21207;DHT22;10761;48.532;8.026;2023-05-29T00:27:00;13.90;1.00
21207;DHT22;10761;48.532;8.026;2023-05-29T00:29:26;13.90;95.70
21207;DHT22;10761;48.532;8.026;2023-05-29T00:31:53;13.90;99.90
21207;DHT22;10761;48.532;8.026;2023-05-29T00:34:19;13.90;99.90
21207;DHT22;10761;48.532;8.026;2023-05-29T00:36:45;13.90;1.00
21207;DHT22;10761;48.532;8.026;2023-05-29T00:39:11;13.80;99.90
21207;DHT22;10761;48.532;8.026;2023-05-29T00:41:37;13.90;99.90
21207;DHT22;10761;48.532;8.026;2023-05-29T00:44:03;13.80;1.00
21207;DHT22;10761;48.532;8.026;2023-05-29T00:46:30;13.80;1.00
21207;DHT22;10761;48.532;8.026;2023-05-29T00:48:58;13.70;99.90
21207;DHT22;10761;48.532;8.026;2023-05-29T00:51:25;13.70;1.00
21207;DHT22;10761;48.532;8.026;2023-05-29T00:53:52;13.60;1.00
21207;DHT22;10761;48.532;8.026;2023-05-29T00:56:19;13.50;1.00
21207;DHT22;10761;48.532;8.026;2023-05-29T00:58:51;13.50;1.00
21207;DHT22;10761;48.532;8.026;2023-05-29T01:01:20;13.40;1.00
21207;DHT22;10761;48.532;8.026;2023-05-29T01:03:50;13.40;99.90
21207;DHT22;10761;48.532;8.026;2023-05-29T01:06:19;13.40;1.00
21207;DHT22;10761;48.532;8.026;2023-05-29T01:08:46;13.40;1.00
21207;DHT22;10761;48.532;8.026;2023-05-29T01:13:44;13.40;1.00
21207;DHT22;10761;48.532;8.026;2023-05-29T01:16:35;13.40;99.90
21207;DHT22;10761;48.532;8.026;2023-05-29T01:19:21;13.40;1.00
21207;DHT22;10761;48.532;8.026;2023-05-29T01:22:12;13.40;1.00
21207;DHT22;10761;48.532;8.026;2023-05-29T01:25:11;13.30;1.00
21207;DHT22;10761;48.532;8.026;2023-05-29T01:27:40;13.30;1.00
21207;DHT22;10761;48.532;8.026;2023-05-29T01:30:08;13.20;1.00
21207;DHT22;10761;48.532;8.026;2023-05-29T01:32:35;13.10;99.90
21207;DHT22;10761;48.532;8.026;2023-05-29T01:35:01;13.10;1.00
21207;DHT22;10761;48.532;8.026;2023-05-29T01:37:27;13.00;1.00
21207;DHT22;10761;48.532;8.026;2023-05-29T01:39:53;13.00;99.90
21207;DHT22;10761;48.532;8.026;2023-05-29T01:42:19;12.90;1.00
21207;DHT22;10761;48.532;8.026;2023-05-29T01:44:45;12.80;1.90
21207;DHT22;10761;48.532;8.026;2023-05-29T01:47:12;12.70;1.00
21207;DHT22;10761;48.532;8.026;2023-05-29T01:49:39;12.70;59.50
21207;DHT22;10761;48.532;8.026;2023-05-29T01:52:05;12.70;99.90
21207;DHT22;10761;48.532;8.026;2023-05-29T01:54:31;12.60;99.90
21207;DHT22;10761;48.532;8.026;2023-05-29T01:56:56;12.60;1.00
21207;DHT22;10761;48.532;8.026;2023-05-29T01:59:23;12.60;1.00
21207;DHT22;10761;48.532;8.026;2023-05-29T02:01:48;12.60;99.90
21207;DHT22;10761;48.532;8.026;2023-05-29T02:04:14;12.60;1.00
21207;DHT22;10761;48.532;8.026;2023-05-29T02:06:40;12.50;84.10
21207;DHT22;10761;48.532;8.026;2023-05-29T02:09:06;12.50;1.00
21207;DHT22;10761;48.532;8.026;2023-05-29T02:11:32;12.40;99.90
21207;DHT22;10761;48.532;8.026;2023-05-29T02:13:57;12.30;1.00
21207;DHT22;10761;48.532;8.026;2023-05-29T02:16:23;12.30;99.90
21207;DHT22;10761;48.532;8.026;2023-05-29T02:18:49;12.20;1.00
21207;DHT22;10761;48.532;8.026;2023-05-29T02:21:14;12.10;1.00
21207;DHT22;10761;48.532;8.026;2023-05-29T02:23:40;12.00;1.00
21207;DHT22;10761;48.532;8.026;2023-05-29T02:26:06;11.90;1.00
21207;DHT22;10761;48.532;8.026;2023-05-29T02:28:32;11.90;1.00
21207;DHT22;10761;48.532;8.026;2023-05-29T02:30:58;11.80;1.00
21207;DHT22;10761;48.532;8.026;2023-05-29T02:33:24;11.80;99.90
21207;DHT22;10761;48.532;8.026;2023-05-29T02:35:49;11.80;1.00
21207;DHT22;10761;48.532;8.026;2023-05-29T02:38:15;11.70;1.00
21207;DHT22;10761;48.532;8.026;2023-05-29T02:40:41;11.70;99.90
21207;DHT22;10761;48.532;8.026;2023-05-29T02:43:09;11.70;1.00
21207;DHT22;10761;48.532;8.026;2023-05-29T02:45:34;11.50;1.00
21207;DHT22;10761;48.532;8.026;2023-05-29T02:48:00;11.50;99.90
21207;DHT22;10761;48.532;8.026;2023-05-29T02:50:26;11.40;1.00
21207;DHT22;10761;48.532;8.026;2023-05-29T02:52:53;11.30;99.90
21207;DHT22;10761;48.532;8.026;2023-05-29T02:55:18;11.30;1.00
21207;DHT22;10761;48.532;8.026;2023-05-29T02:57:44;11.30;1.00
21207;DHT22;10761;48.532;8.026;2023-05-29T03:00:10;11.30;1.00
21207;DHT22;10761;48.532;8.026;2023-05-29T03:02:36;11.30;1.00
21207;DHT22;10761;48.532;8.026;2023-05-29T03:05:02;11.30;1.00
21207;DHT22;10761;48.532;8.026;2023-05-29T03:07:28;11.20;1.00
21207;DHT22;10761;48.532;8.026;2023-05-29T03:09:54;11.20;1.00
21207;DHT22;10761;48.532;8.026;2023-05-29T03:12:20;11.20;1.00
21207;DHT22;10761;48.532;8.026;2023-05-29T03:14:46;11.20;1.00
21207;DHT22;10761;48.532;8.026;2023-05-29T03:17:12;11.20;1.00
21207;DHT22;10761;48.532;8.026;2023-05-29T03:19:38;11.20;1.00
21207;DHT22;10761;48.532;8.026;2023-05-29T03:22:04;11.20;1.00
21207;DHT22;10761;48.532;8.026;2023-05-29T03:24:30;11.10;1.00
21207;DHT22;10761;48.532;8.026;2023-05-29T03:26:55;11.10;1.00
21207;DHT22;10761;48.532;8.026;2023-05-29T03:29:21;11.00;1.00
21207;DHT22;10761;48.532;8.026;2023-05-29T03:31:47;11.10;1.00
21207;DHT22;10761;48.532;8.026;2023-05-29T03:34:13;11.00;1.00
21207;DHT22;10761;48.532;8.026;2023-05-29T03:36:39;10.90;1.00
21207;DHT22;10761;48.532;8.026;2023-05-29T03:39:04;10.90;1.00
21207;DHT22;10761;48.532;8.026;2023-05-29T03:41:30;11.00;1.00
21207;DHT22;10761;48.532;8.026;2023-05-29T03:43:56;10.90;1.00
21207;DHT22;10761;48.532;8.026;2023-05-29T03:46:21;10.90;1.00
21207;DHT22;10761;48.532;8.026;2023-05-29T03:48:47;10.90;1.00
21207;DHT22;10761;48.532;8.026;2023-05-29T03:51:13;10.80;1.00
21207;DHT22;10761;48.532;8.026;2023-05-29T03:53:38;10.80;1.00
21207;DHT22;10761;48.532;8.026;2023-05-29T03:56:04;10.80;1.00
21207;DHT22;10761;48.532;8.026;2023-05-29T03:58:31;10.80;1.00
21207;DHT22;10761;48.532;8.026;2023-05-29T04:00:56;10.80;1.00
21207;DHT22;10761;48.532;8.026;2023-05-29T04:03:22;10.80;1.00
21207;DHT22;10761;48.532;8.026;2023-05-29T04:05:48;10.90;1.00
21207;DHT22;10761;48.532;8.026;2023-05-29T04:08:14;11.10;1.00
21207;DHT22;10761;48.532;8.026;2023-05-29T04:10:39;11.10;1.00
21207;DHT22;10761;48.532;8.026;2023-05-29T04:13:05;11.20;1.00
21207;DHT22;10761;48.532;8.026;2023-05-29T04:15:31;11.30;1.00
21207;DHT22;10761;48.532;8.026;2023-05-29T04:17:59;11.30;1.00
21207;DHT22;10761;48.532;8.026;2023-05-29T04:20:24;11.30;1.00
21207;DHT22;10761;48.532;8.026;2023-05-29T04:22:51;11.40;1.00
21207;DHT22;10761;48.532;8.026;2023-05-29T04:25:17;11.40;1.00
21207;DHT22;10761;48.532;8.026;2023-05-29T04:27:44;11.40;1.00
21207;DHT22;10761;48.532;8.026;2023-05-29T04:30:15;11.50;1.00
21207;DHT22;10761;48.532;8.026;2023-05-29T04:32:41;11.60;1.00
21207;DHT22;10761;48.532;8.026;2023-05-29T04:35:06;11.70;1.00
21207;DHT22;10761;48.532;8.026;2023-05-29T04:37:33;11.80;1.00
21207;DHT22;10761;48.532;8.026;2023-05-29T04:40:07;11.80;1.00
21207;DHT22;10761;48.532;8.026;2023-05-29T04:42:36;11.90;1.00
21207;DHT22;10761;48.532;8.026;2023-05-29T04:45:02;12.00;99.90
21207;DHT22;10761;48.532;8.026;2023-05-29T04:47:31;12.10;99.90
21207;DHT22;10761;48.532;8.026;2023-05-29T04:49:59;12.20;99.90
21207;DHT22;10761;48.532;8.026;2023-05-29T04:52:25;12.40;99.90
21207;DHT22;10761;48.532;8.026;2023-05-29T04:54:51;12.50;99.90
21207;DHT22;10761;48.532;8.026;2023-05-29T04:57:17;12.60;99.90
21207;DHT22;10761;48.532;8.026;2023-05-29T04:59:43;12.60;1.00
21207;DHT22;10761;48.532;8.026;2023-05-29T05:02:09;12.70;99.90
21207;DHT22;10761;48.532;8.026;2023-05-29T05:04:35;12.80;72.80
21207;DHT22;10761;48.532;8.026;2023-05-29T05:07:00;12.90;1.00
21207;DHT22;10761;48.532;8.026;2023-05-29T05:09:27;13.10;1.00
21207;DHT22;10761;48.532;8.026;2023-05-29T05:11:53;13.20;1.00
21207;DHT22;10761;48.532;8.026;2023-05-29T05:14:18;13.30;1.00
21207;DHT22;10761;48.532;8.026;2023-05-29T05:16:44;13.40;99.90
21207;DHT22;10761;48.532;8.026;2023-05-29T05:19:10;13.50;99.90
21207;DHT22;10761;48.532;8.026;2023-05-29T05:21:35;13.60;36.70
21207;DHT22;10761;48.532;8.026;2023-05-29T05:24:01;13.70;1.00
21207;DHT22;10761;48.532;8.026;2023-05-29T05:26:27;13.90;99.90
21207;DHT22;10761;48.532;8.026;2023-05-29T05:28:52;14.00;99.90
21207;DHT22;10761;48.532;8.026;2023-05-29T05:31:18;14.20;1.00
21207;DHT22;10761;48.532;8.026;2023-05-29T05:33:44;14.50;1.00
21207;DHT22;10761;48.532;8.026;2023-05-29T05:36:09;14.70;99.90
21207;DHT22;10761;48.532;8.026;2023-05-29T05:38:36;14.80;1.00
21207;DHT22;10761;48.532;8.026;2023-05-29T05:41:01;14.90;1.00
21207;DHT22;10761;48.532;8.026;2023-05-29T05:43:27;15.00;1.00
21207;DHT22;10761;48.532;8.026;2023-05-29T05:45:52;15.10;99.90
21207;DHT22;10761;48.532;8.026;2023-05-29T05:48:18;15.20;99.90
21207;DHT22;10761;48.532;8.026;2023-05-29T05:50:44;15.30;99.90
21207;DHT22;10761;48.532;8.026;2023-05-29T05:53:10;15.50;99.90
21207;DHT22;10761;48.532;8.026;2023-05-29T05:55:36;15.60;1.00
21207;DHT22;10761;48.532;8.026;2023-05-29T05:58:02;15.80;1.00
21207;DHT22;10761;48.532;8.026;2023-05-29T06:00:27;16.00;1.00
21207;DHT22;10761;48.532;8.026;2023-05-29T06:02:53;16.10;1.00
21207;DHT22;10761;48.532;8.026;2023-05-29T06:05:19;16.20;1.00
21207;DHT22;10761;48.532;8.026;2023-05-29T06:07:44;16.40;44.60
21207;DHT22;10761;48.532;8.026;2023-05-29T06:10:10;16.60;1.00
21207;DHT22;10761;48.532;8.026;2023-05-29T06:12:36;16.80;1.00
21207;DHT22;10761;48.532;8.026;2023-05-29T06:15:02;17.10;1.00
21207;DHT22;10761;48.532;8.026;2023-05-29T06:17:29;17.30;99.90
21207;DHT22;10761;48.532;8.026;2023-05-29T06:19:55;17.40;1.00
21207;DHT22;10761;48.532;8.026;2023-05-29T06:22:21;17.50;1.00
21207;DHT22;10761;48.532;8.026;2023-05-29T06:24:46;17.80;1.00
21207;DHT22;10761;48.532;8.026;2023-05-29T06:27:12;18.10;1.00
21207;DHT22;10761;48.532;8.026;2023-05-29T06:29:38;18.30;1.00
21207;DHT22;10761;48.532;8.026;2023-05-29T06:32:03;18.30;99.90
21207;DHT22;10761;48.532;8.026;2023-05-29T06:34:29;18.00;1.00
21207;DHT22;10761;48.532;8.026;2023-05-29T06:36:55;18.00;1.00
21207;DHT22;10761;48.532;8.026;2023-05-29T06:39:20;18.00;1.00
21207;DHT22;10761;48.532;8.026;2023-05-29T06:41:46;18.30;1.00
21207;DHT22;10761;48.532;8.026;2023-05-29T06:44:12;18.10;99.90
21207;DHT22;10761;48.532;8.026;2023-05-29T06:46:37;18.10;1.00
21207;DHT22;10761;48.532;8.026;2023-05-29T06:49:03;18.20;99.90
21207;DHT22;10761;48.532;8.026;2023-05-29T06:51:29;18.40;1.00
21207;DHT22;10761;48.532;8.026;2023-05-29T06:53:55;18.70;99.90
21207;DHT22;10761;48.532;8.026;2023-05-29T06:56:20;19.00;99.90
21207;DHT22;10761;48.532;8.026;2023-05-29T06:58:47;19.30;99.90
21207;DHT22;10761;48.532;8.026;2023-05-29T07:01:13;19.10;99.90
21207;DHT22;10761;48.532;8.026;2023-05-29T07:03:38;19.20;99.90
21207;DHT22;10761;48.532;8.026;2023-05-29T07:06:04;19.50;61.20
21207;DHT22;10761;48.532;8.026;2023-05-29T07:08:30;19.50;1.00
21207;DHT22;10761;48.532;8.026;2023-05-29T07:10:56;19.80;1.00
21207;DHT22;10761;48.532;8.026;2023-05-29T07:13:21;20.10;1.00
21207;DHT22;10761;48.532;8.026;2023-05-29T07:15:50;20.40;1.00
21207;DHT22;10761;48.532;8.026;2023-05-29T07:18:16;20.60;1.00
21207;DHT22;10761;48.532;8.026;2023-05-29T07:20:42;20.60;1.00
21207;DHT22;10761;48.532;8.026;2023-05-29T07:23:07;20.80;1.00
21207;DHT22;10761;48.532;8.026;2023-05-29T07:25:33;21.20;1.00
21207;DHT22;10761;48.532;8.026;2023-05-29T07:27:59;21.50;1.00
21207;DHT22;10761;48.532;8.026;2023-05-29T07:30:24;21.40;1.00
21207;DHT22;10761;48.532;8.026;2023-05-29T07:32:50;21.80;1.00
21207;DHT22;10761;48.532;8.026;2023-05-29T07:35:16;21.90;1.00
21207;DHT22;10761;48.532;8.026;2023-05-29T07:37:41;22.20;1.00
21207;DHT22;10761;48.532;8.026;2023-05-29T07:40:07;22.10;1.00
21207;DHT22;10761;48.532;8.026;2023-05-29T07:42:33;22.10;1.00
21207;DHT22;10761;48.532;8.026;2023-05-29T07:44:59;22.40;1.00
21207;DHT22;10761;48.532;8.026;2023-05-29T07:47:26;22.80;1.00
21207;DHT22;10761;48.532;8.026;2023-05-29T07:49:52;22.50;1.00
21207;DHT22;10761;48.532;8.026;2023-05-29T07:52:18;22.60;1.00
21207;DHT22;10761;48.532;8.026;2023-05-29T07:54:44;22.30;1.00
21207;DHT22;10761;48.532;8.026;2023-05-29T07:57:10;22.00;1.00
21207;DHT22;10761;48.532;8.026;2023-05-29T07:59:44;22.20;1.00
21207;DHT22;10761;48.532;8.026;2023-05-29T08:02:10;22.50;1.00
21207;DHT22;10761;48.532;8.026;2023-05-29T08:04:37;22.50;1.00
21207;DHT22;10761;48.532;8.026;2023-05-29T08:07:02;22.70;1.00
21207;DHT22;10761;48.532;8.026;2023-05-29T08:09:31;23.20;1.00
21207;DHT22;10761;48.532;8.026;2023-05-29T08:11:57;23.40;1.00
21207;DHT22;10761;48.532;8.026;2023-05-29T08:14:23;23.50;99.90
21207;DHT22;10761;48.532;8.026;2023-05-29T08:16:48;23.60;99.90
21207;DHT22;10761;48.532;8.026;2023-05-29T08:19:14;23.60;1.00
21207;DHT22;10761;48.532;8.026;2023-05-29T08:21:40;23.70;99.90
21207;DHT22;10761;48.532;8.026;2023-05-29T08:24:06;23.70;99.90
21207;DHT22;10761;48.532;8.026;2023-05-29T08:26:32;24.00;99.90
21207;DHT22;10761;48.532;8.026;2023-05-29T08:28:58;24.40;99.90
21207;DHT22;10761;48.532;8.026;2023-05-29T08:31:23;24.60;99.90
21207;DHT22;10761;48.532;8.026;2023-05-29T08:33:51;24.60;99.90
21207;DHT22;10761;48.532;8.026;2023-05-29T08:36:17;24.60;99.90
21207;DHT22;10761;48.532;8.026;2023-05-29T08:38:43;24.60;99.90
21207;DHT22;10761;48.532;8.026;2023-05-29T08:41:09;24.40;99.90
21207;DHT22;10761;48.532;8.026;2023-05-29T08:43:40;24.30;99.90
21207;DHT22;10761;48.532;8.026;2023-05-29T08:46:07;24.40;99.90
21207;DHT22;10761;48.532;8.026;2023-05-29T08:48:35;24.20;99.90
21207;DHT22;10761;48.532;8.026;2023-05-29T08:51:02;23.80;99.90
21207;DHT22;10761;48.532;8.026;2023-05-29T08:53:29;23.90;99.90
21207;DHT22;10761;48.532;8.026;2023-05-29T08:55:57;24.30;99.90
21207;DHT22;10761;48.532;8.026;2023-05-29T08:58:23;24.40;99.90
21207;DHT22;10761;48.532;8.026;2023-05-29T09:00:50;24.80;99.90
21207;DHT22;10761;48.532;8.026;2023-05-29T09:03:17;24.70;99.90
21207;DHT22;10761;48.532;8.026;2023-05-29T09:05:44;24.60;99.90
21207;DHT22;10761;48.532;8.026;2023-05-29T09:08:11;24.90;99.90
21207;DHT22;10761;48.532;8.026;2023-05-29T09:10:39;25.00;99.90
21207;DHT22;10761;48.532;8.026;2023-05-29T09:13:06;25.30;99.90
21207;DHT22;10761;48.532;8.026;2023-05-29T09:15:32;25.40;99.90
21207;DHT22;10761;48.532;8.026;2023-05-29T09:17:59;25.30;99.90
21207;DHT22;10761;48.532;8.026;2023-05-29T09:20:26;25.40;99.90
21207;DHT22;10761;48.532;8.026;2023-05-29T09:23:07;25.60;99.90
21207;DHT22;10761;48.532;8.026;2023-05-29T09:25:35;25.40;99.90
21207;DHT22;10761;48.532;8.026;2023-05-29T09:28:03;25.40;99.90
21207;DHT22;10761;48.532;8.026;2023-05-29T09:30:42;25.30;99.90
21207;DHT22;10761;48.532;8.026;2023-05-29T09:33:13;25.00;99.90
21207;DHT22;10761;48.532;8.026;2023-05-29T09:35:39;24.80;99.90
21207;DHT22;10761;48.532;8.026;2023-05-29T09:38:06;24.90;99.90
21207;DHT22;10761;48.532;8.026;2023-05-29T09:40:33;24.90;99.90
21207;DHT22;10761;48.532;8.026;2023-05-29T09:43:04;24.80;99.90
21207;DHT22;10761;48.532;8.026;2023-05-29T09:45:30;25.20;99.90
21207;DHT22;10761;48.532;8.026;2023-05-29T09:47:56;25.50;99.90
21207;DHT22;10761;48.532;8.026;2023-05-29T09:50:26;25.40;99.90
21207;DHT22;10761;48.532;8.026;2023-05-29T09:52:52;25.40;99.90
21207;DHT22;10761;48.532;8.026;2023-05-29T09:55:23;25.60;99.90
21207;DHT22;10761;48.532;8.026;2023-05-29T09:57:49;25.70;99.90
21207;DHT22;10761;48.532;8.026;2023-05-29T10:00:18;25.90;99.90
21207;DHT22;10761;48.532;8.026;2023-05-29T10:02:45;26.00;99.90
21207;DHT22;10761;48.532;8.026;2023-05-29T10:05:11;26.30;99.90
21207;DHT22;10761;48.532;8.026;2023-05-29T10:07:44;26.30;99.90
21207;DHT22;10761;48.532;8.026;2023-05-29T10:10:14;26.50;99.90
21207;DHT22;10761;48.532;8.026;2023-05-29T10:12:47;26.40;99.90
21207;DHT22;10761;48.532;8.026;2023-05-29T10:15:13;26.60;99.90
21207;DHT22;10761;48.532;8.026;2023-05-29T10:17:50;26.50;99.90
21207;DHT22;10761;48.532;8.026;2023-05-29T10:20:19;26.50;99.90
21207;DHT22;10761;48.532;8.026;2023-05-29T10:22:50;26.50;99.90
21207;DHT22;10761;48.532;8.026;2023-05-29T10:25:19;26.40;99.90
21207;DHT22;10761;48.532;8.026;2023-05-29T10:27:46;26.40;99.90
21207;DHT22;10761;48.532;8.026;2023-05-29T10:30:46;26.50;99.90
21207;DHT22;10761;48.532;8.026;2023-05-29T10:33:36;26.60;99.90
21207;DHT22;10761;48.532;8.026;2023-05-29T10:36:12;26.40;99.90
21207;DHT22;10761;48.532;8.026;2023-05-29T10:38:41;26.10;99.90
21207;DHT22;10761;48.532;8.026;2023-05-29T10:43:57;25.70;99.90
21207;DHT22;10761;48.532;8.026;2023-05-29T10:49:20;26.00;99.90
21207;DHT22;10761;48.532;8.026;2023-05-29T10:51:47;26.20;99.90
21207;DHT22;10761;48.532;8.026;2023-05-29T10:54:19;26.00;99.90
21207;DHT22;10761;48.532;8.026;2023-05-29T10:56:52;25.90;99.90
21207;DHT22;10761;48.532;8.026;2023-05-29T10:59:18;26.00;99.90
21207;DHT22;10761;48.532;8.026;2023-05-29T11:01:44;26.00;99.90
21207;DHT22;10761;48.532;8.026;2023-05-29T11:04:30;26.40;99.90
21207;DHT22;10761;48.532;8.026;2023-05-29T11:06:58;26.90;99.90
21207;DHT22;10761;48.532;8.026;2023-05-29T11:09:35;27.30;99.90
21207;DHT22;10761;48.532;8.026;2023-05-29T11:12:24;27.60;99.90
21207;DHT22;10761;48.532;8.026;2023-05-29T11:15:10;27.20;99.90
21207;DHT22;10761;48.532;8.026;2023-05-29T11:23:05;27.00;99.90
21207;DHT22;10761;48.532;8.026;2023-05-29T11:25:35;27.00;99.90
21207;DHT22;10761;48.532;8.026;2023-05-29T11:28:01;27.10;99.90
21207;DHT22;10761;48.532;8.026;2023-05-29T11:30:29;27.10;99.90
21207;DHT22;10761;48.532;8.026;2023-05-29T11:33:00;27.20;99.90
21207;DHT22;10761;48.532;8.026;2023-05-29T11:35:29;27.20;99.90
21207;DHT22;10761;48.532;8.026;2023-05-29T11:37:57;27.60;99.90
21207;DHT22;10761;48.532;8.026;2023-05-29T11:40:23;27.40;99.90
21207;DHT22;10761;48.532;8.026;2023-05-29T11:42:50;27.20;99.90
21207;DHT22;10761;48.532;8.026;2023-05-29T11:45:18;27.40;99.90
21207;DHT22;10761;48.532;8.026;2023-05-29T11:50:22;27.40;99.90
21207;DHT22;10761;48.532;8.026;2023-05-29T11:52:48;27.50;99.90
21207;DHT22;10761;48.532;8.026;2023-05-29T11:55:14;27.50;99.90
21207;DHT22;10761;48.532;8.026;2023-05-29T11:57:39;27.40;99.90
21207;DHT22;10761;48.532;8.026;2023-05-29T12:00:06;27.40;99.90
21207;DHT22;10761;48.532;8.026;2023-05-29T12:02:36;27.50;99.90
21207;DHT22;10761;48.532;8.026;2023-05-29T12:05:03;27.30;99.90
21207;DHT22;10761;48.532;8.026;2023-05-29T12:07:30;27.40;99.90
21207;DHT22;10761;48.532;8.026;2023-05-29T12:09:55;27.70;99.90
21207;DHT22;10761;48.532;8.026;2023-05-29T12:12:23;27.70;99.90
21207;DHT22;10761;48.532;8.026;2023-05-29T12:14:52;27.90;99.90
21207;DHT22;10761;48.532;8.026;2023-05-29T12:17:19;28.00;99.90
21207;DHT22;10761;48.532;8.026;2023-05-29T12:19:45;28.10;99.90
21207;DHT22;10761;48.532;8.026;2023-05-29T12:22:11;28.10;99.90
21207;DHT22;10761;48.532;8.026;2023-05-29T12:24:37;27.90;99.90
21207;DHT22;10761;48.532;8.026;2023-05-29T12:27:09;27.70;99.90
21207;DHT22;10761;48.532;8.026;2023-05-29T12:29:35;27.60;99.90
21207;DHT22;10761;48.532;8.026;2023-05-29T12:32:00;27.70;99.90
21207;DHT22;10761;48.532;8.026;2023-05-29T12:34:26;28.00;99.90
21207;DHT22;10761;48.532;8.026;2023-05-29T12:36:51;28.20;99.90
21207;DHT22;10761;48.532;8.026;2023-05-29T12:39:17;28.20;99.90
21207;DHT22;10761;48.532;8.026;2023-05-29T12:41:43;27.90;99.90
21207;DHT22;10761;48.532;8.026;2023-05-29T12:44:09;27.90;99.90
21207;DHT22;10761;48.532;8.026;2023-05-29T12:46:37;27.80;99.90
21207;DHT22;10761;48.532;8.026;2023-05-29T12:49:16;27.80;99.90
21207;DHT22;10761;48.532;8.026;2023-05-29T12:51:44;27.90;99.90
21207;DHT22;10761;48.532;8.026;2023-05-29T12:54:11;28.10;99.90
21207;DHT22;10761;48.532;8.026;2023-05-29T12:56:37;28.30;99.90
21207;DHT22;10761;48.532;8.026;2023-05-29T12:59:09;28.30;87.70
21207;DHT22;10761;48.532;8.026;2023-05-29T13:01:38;28.50;95.50
21207;DHT22;10761;48.532;8.026;2023-05-29T13:04:07;28.50;98.10
21207;DHT22;10761;48.532;8.026;2023-05-29T13:06:37;28.50;97.20
21207;DHT22;10761;48.532;8.026;2023-05-29T13:09:03;28.20;92.70
21207;DHT22;10761;48.532;8.026;2023-05-29T13:11:29;28.10;98.90
21207;DHT22;10761;48.532;8.026;2023-05-29T13:13:54;27.80;90.30
21207;DHT22;10761;48.532;8.026;2023-05-29T13:16:21;27.80;93.40
21207;DHT22;10761;48.532;8.026;2023-05-29T13:18:46;27.70;91.40
21207;DHT22;10761;48.532;8.026;2023-05-29T13:21:12;27.70;82.90
21207;DHT22;10761;48.532;8.026;2023-05-29T13:23:38;27.80;91.60
21207;DHT22;10761;48.532;8.026;2023-05-29T13:26:04;27.90;92.40
21207;DHT22;10761;48.532;8.026;2023-05-29T13:28:30;27.80;94.30
21207;DHT22;10761;48.532;8.026;2023-05-29T13:30:56;27.80;99.90
21207;DHT22;10761;48.532;8.026;2023-05-29T13:33:21;27.80;99.90
21207;DHT22;10761;48.532;8.026;2023-05-29T13:35:47;27.90;99.40
21207;DHT22;10761;48.532;8.026;2023-05-29T13:38:13;27.70;86.40
21207;DHT22;10761;48.532;8.026;2023-05-29T13:40:38;27.60;91.50
21207;DHT22;10761;48.532;8.026;2023-05-29T13:43:04;27.70;93.50
21207;DHT22;10761;48.532;8.026;2023-05-29T13:45:30;27.70;95.80
21207;DHT22;10761;48.532;8.026;2023-05-29T13:47:55;27.80;97.50
21207;DHT22;10761;48.532;8.026;2023-05-29T13:50:21;27.80;96.50
21207;DHT22;10761;48.532;8.026;2023-05-29T13:52:49;27.70;91.90
21207;DHT22;10761;48.532;8.026;2023-05-29T13:55:14;27.50;90.00
21207;DHT22;10761;48.532;8.026;2023-05-29T13:57:40;27.60;89.80
21207;DHT22;10761;48.532;8.026;2023-05-29T14:00:09;27.80;90.90
21207;DHT22;10761;48.532;8.026;2023-05-29T14:02:36;27.70;93.70
21207;DHT22;10761;48.532;8.026;2023-05-29T14:05:03;27.80;59.20
21207;DHT22;10761;48.532;8.026;2023-05-29T14:07:29;27.80;99.90
21207;DHT22;10761;48.532;8.026;2023-05-29T14:09:54;27.70;95.10
21207;DHT22;10761;48.532;8.026;2023-05-29T14:12:20;27.80;99.90
21207;DHT22;10761;48.532;8.026;2023-05-29T14:14:46;27.60;97.70
21207;DHT22;10761;48.532;8.026;2023-05-29T14:17:13;27.70;98.70
21207;DHT22;10761;48.532;8.026;2023-05-29T14:19:38;28.00;97.60
21207;DHT22;10761;48.532;8.026;2023-05-29T14:22:04;28.20;99.00
21207;DHT22;10761;48.532;8.026;2023-05-29T14:24:30;28.20;96.40
21207;DHT22;10761;48.532;8.026;2023-05-29T14:26:56;28.00;92.80
21207;DHT22;10761;48.532;8.026;2023-05-29T14:29:21;28.00;84.00
21207;DHT22;10761;48.532;8.026;2023-05-29T14:31:47;28.00;85.60
21207;DHT22;10761;48.532;8.026;2023-05-29T14:34:13;27.90;70.50
21207;DHT22;10761;48.532;8.026;2023-05-29T14:36:39;27.70;70.20
21207;DHT22;10761;48.532;8.026;2023-05-29T14:39:07;27.60;70.20
21207;DHT22;10761;48.532;8.026;2023-05-29T14:41:33;27.60;73.30
21207;DHT22;10761;48.532;8.026;2023-05-29T14:44:00;27.70;72.90
21207;DHT22;10761;48.532;8.026;2023-05-29T14:46:26;27.70;73.70
21207;DHT22;10761;48.532;8.026;2023-05-29T14:48:54;27.80;73.80
21207;DHT22;10761;48.532;8.026;2023-05-29T14:51:20;27.80;68.20
21207;DHT22;10761;48.532;8.026;2023-05-29T14:53:46;27.60;57.70
21207;DHT22;10761;48.532;8.026;2023-05-29T14:56:11;27.50;59.10
21207;DHT22;10761;48.532;8.026;2023-05-29T14:58:37;27.50;56.90
21207;DHT22;10761;48.532;8.026;2023-05-29T15:01:03;27.50;56.10
21207;DHT22;10761;48.532;8.026;2023-05-29T15:03:28;27.60;60.30
21207;DHT22;10761;48.532;8.026;2023-05-29T15:05:55;27.40;53.90
21207;DHT22;10761;48.532;8.026;2023-05-29T15:08:20;27.50;58.50
21207;DHT22;10761;48.532;8.026;2023-05-29T15:10:46;27.60;59.20
21207;DHT22;10761;48.532;8.026;2023-05-29T15:13:12;27.50;42.50
21207;DHT22;10761;48.532;8.026;2023-05-29T15:15:37;27.40;43.70
21207;DHT22;10761;48.532;8.026;2023-05-29T15:18:03;27.40;44.60
21207;DHT22;10761;48.532;8.026;2023-05-29T15:20:29;27.40;43.60
21207;DHT22;10761;48.532;8.026;2023-05-29T15:22:54;27.40;43.70
21207;DHT22;10761;48.532;8.026;2023-05-29T15:25:21;27.50;37.60
21207;DHT22;10761;48.532;8.026;2023-05-29T15:27:48;27.50;37.50
21207;DHT22;10761;48.532;8.026;2023-05-29T15:30:18;27.60;32.10
21207;DHT22;10761;48.532;8.026;2023-05-29T15:32:45;27.60;29.10
21207;DHT22;10761;48.532;8.026;2023-05-29T15:35:13;27.50;35.80
21207;DHT22;10761;48.532;8.026;2023-05-29T15:37:40;27.60;31.40
21207;DHT22;10761;48.532;8.026;2023-05-29T15:40:07;27.60;37.10
21207;DHT22;10761;48.532;8.026;2023-05-29T15:42:33;27.50;38.40
21207;DHT22;10761;48.532;8.026;2023-05-29T15:44:58;27.50;30.10
21207;DHT22;10761;48.532;8.026;2023-05-29T15:47:25;27.30;28.30
21207;DHT22;10761;48.532;8.026;2023-05-29T15:49:51;27.40;30.00
21207;DHT22;10761;48.532;8.026;2023-05-29T15:52:17;27.40;30.10